KASN

Talladega Municipal Airport

Talladega, Alabama, USA
METAR KASN 171635Z AUTO 23004KT 10SM SCT025 OVC035 29/24 A3016 RMK AO2 LTG DSNT S T02860239
Observed Flight Rules
Aug-17 @ 16:35 UTC (17 minutes ago) Visual Flight Rules
Wind Visibility Clouds
230° at 4 knots 10 miles
  • Scattered at 2,500' AGL
  • Overcast at 3,500' AGL
Temperatures Readings
Current 29°C / 84°F
Dewpoint 24°C / 75°F
Humidity 74%
Altimeter 30.16" Hg
Pressure 1021 hPa
Elevation 162
METAR KASN 171635Z AUTO 23004KT 10SM SCT025 OVC035 29/24 A3016 RMK AO2 LTG DSNT S T02860239
Observed Flight Rules
Aug-17 @ 16:35 UTC
(17 minutes ago)
VFR
Wind Visibility
230° at 4 knots 10 miles
Clouds
  • Scattered at 2,500' AGL
  • Overcast at 3,500' AGL
Temperature Dewpoint
29°C / 84°F 24°C / 75°F
Humidity Altimeter Pressure
74% 30.16" Hg 1021 hPa